createdAt,value
2023-02-06T00:01:27.701Z,23.15
2023-02-06T00:03:55.361Z,24.25
2023-02-06T00:06:22.901Z,21.80
2023-02-06T00:08:50.326Z,25.77
2023-02-06T00:11:18.015Z,24.02
2023-02-06T00:13:45.917Z,24.27
2023-02-06T00:16:17.673Z,27.35
2023-02-06T00:18:45.382Z,27.90
2023-02-06T00:21:12.983Z,28.88
2023-02-06T00:23:40.409Z,30.17
2023-02-06T00:26:08.542Z,26.52
2023-02-06T00:28:37.646Z,23.73
2023-02-06T00:31:08.494Z,25.98
2023-02-06T00:33:36.143Z,25.35
2023-02-06T00:36:03.744Z,21.13
2023-02-06T00:38:31.547Z,22.23
2023-02-06T00:40:58.972Z,20.95
2023-02-06T00:43:26.782Z,18.88
2023-02-06T00:45:54.776Z,19.38
2023-02-06T00:48:22.811Z,20.92
2023-02-06T00:50:50.909Z,21.15
2023-02-06T00:53:18.365Z,21.67
2023-02-06T00:55:45.815Z,21.58
2023-02-06T00:58:13.340Z,25.63
2023-02-06T01:00:43.948Z,26.05
2023-02-06T01:03:11.728Z,24.45
2023-02-06T01:05:39.278Z,29.33
2023-02-06T01:08:06.846Z,27.00
2023-02-06T01:10:34.319Z,22.50
2023-02-06T01:13:01.808Z,27.05
2023-02-06T01:15:29.447Z,24.10
2023-02-06T01:17:57.026Z,25.33
2023-02-06T01:20:24.850Z,23.50
2023-02-06T01:22:52.531Z,24.98
2023-02-06T01:25:20.040Z,22.35
2023-02-06T01:27:48.291Z,21.00
2023-02-06T01:30:15.850Z,18.05
2023-02-06T01:32:43.531Z,18.30
2023-02-06T01:35:11.721Z,18.55
2023-02-06T01:37:40.161Z,19.02
2023-02-06T01:40:09.095Z,16.20
2023-02-06T01:42:37.429Z,14.77
2023-02-06T01:45:23.717Z,13.48
2023-02-06T01:47:52.209Z,15.02
2023-02-06T01:50:20.776Z,13.45
2023-02-06T01:52:48.452Z,12.73
2023-02-06T01:55:16.028Z,12.02
2023-02-06T01:57:43.547Z,12.75
2023-02-06T02:00:11.772Z,13.77
2023-02-06T02:02:43.060Z,12.70
2023-02-06T02:05:11.902Z,11.75
2023-02-06T02:07:45.161Z,11.30
2023-02-06T02:10:12.627Z,12.82
2023-02-06T02:12:40.021Z,11.32
2023-02-06T02:15:07.628Z,12.00
2023-02-06T02:17:43.766Z,10.48
2023-02-06T02:20:14.392Z,12.30
2023-02-06T02:22:51.581Z,9.25
2023-02-06T02:25:19.022Z,11.00
2023-02-06T02:27:49.606Z,10.68
2023-02-06T02:30:26.230Z,10.68
2023-02-06T02:33:16.148Z,11.00
2023-02-06T02:36:02.584Z,10.38
2023-02-06T02:38:36.336Z,11.18
2023-02-06T02:41:22.604Z,11.68
2023-02-06T02:44:01.503Z,10.48
2023-02-06T02:46:36.093Z,11.82
2023-02-06T02:49:12.078Z,10.82
2023-02-06T02:51:40.243Z,9.60
2023-02-06T02:54:07.985Z,12.77
2023-02-06T02:56:35.729Z,10.95
2023-02-06T02:59:10.541Z,9.45
2023-02-06T03:01:41.709Z,10.20
2023-02-06T03:04:12.890Z,10.75
2023-02-06T03:06:40.583Z,9.25
2023-02-06T03:09:23.590Z,9.93
2023-02-06T03:12:02.939Z,8.80
2023-02-06T03:14:42.351Z,10.90
2023-02-06T03:17:16.048Z,9.20
2023-02-06T03:19:46.648Z,10.15
2023-02-06T03:22:15.336Z,10.63
2023-02-06T03:24:43.430Z,10.75
2023-02-06T03:27:13.114Z,10.68
2023-02-06T03:29:41.480Z,10.70
2023-02-06T03:32:16.485Z,10.10
2023-02-06T03:35:02.400Z,12.40
2023-02-06T03:37:30.253Z,10.98
2023-02-06T03:39:59.354Z,9.77
2023-02-06T03:42:27.597Z,10.10
2023-02-06T03:45:10.093Z,10.88
2023-02-06T03:47:38.140Z,12.18
2023-02-06T03:50:08.122Z,11.95
2023-02-06T03:52:40.553Z,8.77
2023-02-06T03:55:10.531Z,9.73
2023-02-06T03:57:38.904Z,10.68
2023-02-06T04:00:07.143Z,13.07
2023-02-06T04:02:40.498Z,12.63
2023-02-06T04:05:08.293Z,10.23
2023-02-06T04:07:37.118Z,11.20
2023-02-06T04:10:04.834Z,9.45
2023-02-06T04:12:32.305Z,10.27
2023-02-06T04:14:59.787Z,11.60
2023-02-06T04:17:46.234Z,12.30
2023-02-06T04:20:16.858Z,11.50
2023-02-06T04:22:44.284Z,11.50
2023-02-06T04:25:11.774Z,12.73
2023-02-06T04:27:39.656Z,11.82
2023-02-06T04:30:07.392Z,12.82
2023-02-06T04:32:34.843Z,12.35
2023-02-06T04:35:02.266Z,9.48
2023-02-06T04:37:29.719Z,12.63
2023-02-06T04:39:57.099Z,11.90
2023-02-06T04:42:24.606Z,11.93
2023-02-06T04:44:52.253Z,11.27
2023-02-06T04:47:19.727Z,11.38
2023-02-06T04:49:47.109Z,12.02
2023-02-06T04:52:14.589Z,10.77
2023-02-06T04:54:42.049Z,11.82
2023-02-06T04:57:09.534Z,12.15
2023-02-06T04:59:36.912Z,10.85
2023-02-06T05:02:04.341Z,10.70
2023-02-06T05:04:31.783Z,11.90
2023-02-06T05:06:59.269Z,11.45
2023-02-06T05:09:26.762Z,10.80
2023-02-06T05:11:54.137Z,11.18
2023-02-06T05:14:21.589Z,11.48
2023-02-06T05:16:49.037Z,13.48
2023-02-06T05:19:16.517Z,11.25
2023-02-06T05:21:43.916Z,11.48
2023-02-06T05:24:11.366Z,11.30
2023-02-06T05:26:38.789Z,12.73
2023-02-06T05:29:06.403Z,13.23
2023-02-06T05:31:33.959Z,17.30
2023-02-06T05:34:01.631Z,16.10
2023-02-06T05:36:29.321Z,17.80
2023-02-06T05:38:56.881Z,16.50
2023-02-06T05:41:24.304Z,18.58
2023-02-06T05:43:51.802Z,17.40
2023-02-06T05:46:19.525Z,17.10
2023-02-06T05:48:47.079Z,15.63
2023-02-06T05:51:14.598Z,16.13
2023-02-06T05:53:42.083Z,12.85
2023-02-06T05:56:09.516Z,15.88
2023-02-06T05:58:36.971Z,11.50
2023-02-06T06:01:04.508Z,12.02
2023-02-06T06:03:33.420Z,11.60
2023-02-06T06:06:00.972Z,13.43
2023-02-06T06:08:28.421Z,14.05
2023-02-06T06:10:55.834Z,16.95
2023-02-06T06:13:23.285Z,16.30
2023-02-06T06:15:51.881Z,13.55
2023-02-06T06:18:20.153Z,13.70
2023-02-06T06:20:47.737Z,12.35
2023-02-06T06:23:15.227Z,13.55
2023-02-06T06:25:42.669Z,14.13
2023-02-06T06:28:10.520Z,12.68
2023-02-06T06:30:38.010Z,16.33
2023-02-06T06:33:05.820Z,15.75
2023-02-06T06:35:33.329Z,14.13
2023-02-06T06:38:00.849Z,15.80
2023-02-06T06:40:28.285Z,14.13
2023-02-06T06:42:55.775Z,16.58
2023-02-06T06:45:23.311Z,16.70
2023-02-06T06:47:50.734Z,17.23
2023-02-06T06:50:18.118Z,19.88
2023-02-06T06:52:45.575Z,14.57
2023-02-06T06:55:13.098Z,16.95
2023-02-06T06:57:40.557Z,15.02
2023-02-06T07:00:09.286Z,16.20
2023-02-06T07:02:36.820Z,15.55
2023-02-06T07:05:04.559Z,16.33
2023-02-06T07:07:32.220Z,19.52
2023-02-06T07:09:59.855Z,15.02
2023-02-06T07:12:28.093Z,12.77
2023-02-06T07:14:55.560Z,13.70
2023-02-06T07:17:23.195Z,10.15
2023-02-06T07:19:52.541Z,14.15
2023-02-06T07:22:20.526Z,12.77
2023-02-06T07:24:48.075Z,12.93
2023-02-06T07:27:15.636Z,12.77
2023-02-06T07:29:43.152Z,13.82
2023-02-06T07:32:10.795Z,11.30
2023-02-06T07:34:38.236Z,16.05
2023-02-06T07:37:05.711Z,13.38
2023-02-06T07:39:33.162Z,11.00
2023-02-06T07:42:00.665Z,15.55
2023-02-06T07:44:35.123Z,12.17
2023-02-06T07:47:02.634Z,16.20
2023-02-06T07:49:30.071Z,16.42
2023-02-06T07:51:57.521Z,17.20
2023-02-06T07:54:24.924Z,15.75
2023-02-06T07:56:52.431Z,15.25
2023-02-06T07:59:19.852Z,11.52
2023-02-06T08:01:47.333Z,16.30
2023-02-06T08:04:14.799Z,16.30
2023-02-06T08:06:42.801Z,15.68
2023-02-06T08:09:13.090Z,15.32
2023-02-06T08:11:47.692Z,18.92
2023-02-06T08:14:15.128Z,15.18
2023-02-06T08:16:42.636Z,15.82
2023-02-06T08:19:12.342Z,15.15
2023-02-06T08:21:39.880Z,14.82
2023-02-06T08:24:07.585Z,12.65
2023-02-06T08:26:35.062Z,12.23
2023-02-06T08:29:04.013Z,10.55
2023-02-06T08:31:41.313Z,11.63
2023-02-06T08:34:09.737Z,10.02
2023-02-06T08:36:37.549Z,8.98
2023-02-06T08:39:05.721Z,11.57
2023-02-06T08:41:34.264Z,12.38
2023-02-06T08:44:02.772Z,10.90
2023-02-06T08:46:31.744Z,10.35
2023-02-06T08:49:00.617Z,12.23
2023-02-06T08:51:28.175Z,12.02
2023-02-06T08:53:59.679Z,12.75
2023-02-06T08:56:27.548Z,14.35
2023-02-06T08:58:55.353Z,14.75
2023-02-06T09:01:22.954Z,15.38
2023-02-06T09:03:50.342Z,14.25
2023-02-06T09:06:17.884Z,16.10
2023-02-06T09:08:45.269Z,14.40
2023-02-06T09:11:15.673Z,14.88
2023-02-06T09:13:43.968Z,18.95
2023-02-06T09:16:12.318Z,15.52
2023-02-06T09:18:40.328Z,13.73
2023-02-06T09:21:11.459Z,13.00
2023-02-06T09:23:39.481Z,13.07
2023-02-06T09:26:07.097Z,12.30
2023-02-06T09:28:34.961Z,10.80
2023-02-06T09:31:02.562Z,12.07
2023-02-06T09:33:30.262Z,13.40
2023-02-06T09:36:08.949Z,11.23
2023-02-06T09:38:36.903Z,12.73
2023-02-06T09:41:05.517Z,13.52
2023-02-06T09:43:34.264Z,10.75
2023-02-06T09:46:03.527Z,14.25
2023-02-06T09:48:33.857Z,13.48
2023-02-06T09:51:07.178Z,12.95
2023-02-06T09:53:34.665Z,10.88
2023-02-06T09:56:02.091Z,12.93
2023-02-06T09:58:45.101Z,10.82
2023-02-06T10:01:30.517Z,12.43
2023-02-06T10:04:17.024Z,11.00
2023-02-06T10:07:04.787Z,12.80
2023-02-06T10:09:41.274Z,13.75
2023-02-06T10:12:20.712Z,10.32
2023-02-06T10:14:56.490Z,12.20
2023-02-06T10:17:29.817Z,10.93
2023-02-06T10:20:00.530Z,12.60
2023-02-06T10:22:51.138Z,12.65
2023-02-06T10:25:18.728Z,12.70
2023-02-06T10:27:48.381Z,8.90
2023-02-06T10:30:20.635Z,14.95
2023-02-06T10:32:55.309Z,14.00
2023-02-06T10:35:32.636Z,10.60
2023-02-06T10:38:01.955Z,13.35
2023-02-06T10:40:38.661Z,12.38
2023-02-06T10:43:15.413Z,14.25
2023-02-06T10:45:45.937Z,14.27
2023-02-06T10:48:28.651Z,14.13
2023-02-06T10:51:14.897Z,14.10
2023-02-06T10:53:55.322Z,13.20
2023-02-06T10:56:26.606Z,13.80
2023-02-06T10:58:56.462Z,13.18
2023-02-06T11:01:26.622Z,14.50
2023-02-06T11:04:17.724Z,16.13
2023-02-06T11:06:46.918Z,14.15
2023-02-06T11:09:15.301Z,16.73
2023-02-06T11:11:48.110Z,14.80
2023-02-06T11:14:20.853Z,14.95
2023-02-06T11:16:48.452Z,20.45
2023-02-06T11:19:21.992Z,16.10
2023-02-06T11:21:53.915Z,17.45
2023-02-06T11:24:22.785Z,16.45
2023-02-06T11:26:50.198Z,17.77
2023-02-06T11:29:19.057Z,16.25
2023-02-06T11:31:46.489Z,17.77
2023-02-06T11:34:20.149Z,17.42
2023-02-06T11:36:51.524Z,16.83
2023-02-06T11:39:27.652Z,14.25
2023-02-06T11:41:58.268Z,14.90
2023-02-06T11:44:26.227Z,19.65
2023-02-06T11:46:53.711Z,18.52
2023-02-06T11:49:26.070Z,18.02
2023-02-06T11:52:00.838Z,16.50
2023-02-06T11:54:29.735Z,18.25
2023-02-06T11:57:09.450Z,22.50
2023-02-06T11:59:38.039Z,19.65
2023-02-06T12:02:24.684Z,15.65
2023-02-06T12:04:54.143Z,18.75
2023-02-06T12:07:44.821Z,14.07
2023-02-06T12:10:16.517Z,11.55
2023-02-06T12:12:46.623Z,13.20
2023-02-06T12:15:46.865Z,13.52
2023-02-06T12:18:21.772Z,18.23
2023-02-06T12:20:54.112Z,16.92
2023-02-06T12:23:24.693Z,14.75
2023-02-06T12:25:53.888Z,17.60
2023-02-06T12:28:27.947Z,19.58
2023-02-06T12:30:57.251Z,17.48
2023-02-06T12:33:28.070Z,13.07
2023-02-06T12:36:18.335Z,14.65
2023-02-06T12:38:48.512Z,13.77
2023-02-06T12:41:28.360Z,16.42
2023-02-06T12:44:12.941Z,13.82
2023-02-06T12:46:41.200Z,16.27
2023-02-06T12:49:20.009Z,13.50
2023-02-06T12:51:47.434Z,20.17
2023-02-06T12:54:17.603Z,17.00
2023-02-06T12:56:47.715Z,14.70
2023-02-06T12:59:21.491Z,15.77
2023-02-06T13:02:06.608Z,21.08
2023-02-06T13:04:36.437Z,18.77
2023-02-06T13:07:14.922Z,15.90
2023-02-06T13:09:53.326Z,22.67
2023-02-06T13:12:25.465Z,19.60
2023-02-06T13:14:57.576Z,18.90
2023-02-06T13:17:26.622Z,18.42
2023-02-06T13:19:54.069Z,18.55
2023-02-06T13:22:22.917Z,14.98
2023-02-06T13:24:51.435Z,14.32
2023-02-06T13:27:25.702Z,18.05
2023-02-06T13:29:54.109Z,22.15
2023-02-06T13:32:24.773Z,17.83
2023-02-06T13:34:57.274Z,20.38
2023-02-06T13:37:33.620Z,18.88
2023-02-06T13:40:13.693Z,20.10
2023-02-06T13:42:41.141Z,19.63
2023-02-06T13:45:15.167Z,22.15
2023-02-06T13:47:52.221Z,17.58
2023-02-06T13:50:31.575Z,22.17
2023-02-06T13:53:07.083Z,16.13
2023-02-06T13:55:34.715Z,18.80
2023-02-06T13:58:05.071Z,23.40
2023-02-06T14:00:33.539Z,24.17
2023-02-06T14:03:13.410Z,17.60
2023-02-06T14:05:47.440Z,20.85
2023-02-06T14:08:14.899Z,20.50
2023-02-06T14:10:51.181Z,19.60
2023-02-06T14:13:18.637Z,17.42
2023-02-06T14:16:04.857Z,15.50
2023-02-06T14:18:41.338Z,16.77
2023-02-06T14:21:21.177Z,21.05
2023-02-06T14:23:51.746Z,22.48
2023-02-06T14:26:34.343Z,18.35
2023-02-06T14:29:22.107Z,17.90
2023-02-06T14:31:49.634Z,19.85
2023-02-06T14:34:19.848Z,15.43
2023-02-06T14:36:50.344Z,18.17
2023-02-06T14:39:36.471Z,25.98
2023-02-06T14:42:19.051Z,21.42
2023-02-06T14:44:50.597Z,19.02
2023-02-06T14:47:20.983Z,17.85
2023-02-06T14:49:48.701Z,18.77
2023-02-06T14:52:20.728Z,18.42
2023-02-06T14:54:48.270Z,18.27
2023-02-06T14:57:29.658Z,20.25
2023-02-06T15:00:02.125Z,19.77
2023-02-06T15:02:29.679Z,20.33
2023-02-06T15:04:57.707Z,20.05
2023-02-06T15:07:28.668Z,21.23
2023-02-06T15:10:16.011Z,17.83
2023-02-06T15:12:51.507Z,15.32
2023-02-06T15:15:21.370Z,15.35
2023-02-06T15:17:58.076Z,19.48
2023-02-06T15:20:28.656Z,20.42
2023-02-06T15:23:08.102Z,18.05
2023-02-06T15:25:50.379Z,17.88
2023-02-06T15:28:19.305Z,15.80
2023-02-06T15:30:47.313Z,17.83
2023-02-06T15:33:19.608Z,16.45
2023-02-06T15:35:53.007Z,17.63
2023-02-06T15:38:21.036Z,21.50
2023-02-06T15:40:53.652Z,17.73
2023-02-06T15:43:24.652Z,18.27
2023-02-06T15:45:53.671Z,17.33
2023-02-06T15:48:29.322Z,22.95
2023-02-06T15:50:56.914Z,16.42
2023-02-06T15:53:51.103Z,19.27
2023-02-06T15:56:24.941Z,14.18
2023-02-06T15:59:00.441Z,16.35
2023-02-06T16:01:30.648Z,16.80
2023-02-06T16:04:02.237Z,16.85
2023-02-06T16:06:29.818Z,16.23
2023-02-06T16:08:58.431Z,16.05
2023-02-06T16:11:52.179Z,15.90
2023-02-06T16:14:25.189Z,17.13
2023-02-06T16:17:11.413Z,18.52
2023-02-06T16:19:41.159Z,18.35
2023-02-06T16:22:35.082Z,18.17
2023-02-06T16:25:37.890Z,17.58
2023-02-06T16:28:19.229Z,19.15
2023-02-06T16:30:54.212Z,18.40
2023-02-06T16:33:31.028Z,23.08
2023-02-06T16:35:58.457Z,20.40
2023-02-06T16:38:25.866Z,20.83
2023-02-06T16:40:53.719Z,16.83
2023-02-06T16:43:21.268Z,15.68
2023-02-06T16:45:49.352Z,16.13
2023-02-06T16:48:17.727Z,17.35
2023-02-06T16:50:46.382Z,18.27
2023-02-06T16:53:21.490Z,18.45
2023-02-06T16:55:49.820Z,16.70
2023-02-06T16:58:19.538Z,17.75
2023-02-06T17:00:47.973Z,25.25
2023-02-06T17:03:17.561Z,22.10
2023-02-06T17:05:46.039Z,19.88
2023-02-06T17:08:16.666Z,18.58
2023-02-06T17:10:44.500Z,18.38
2023-02-06T17:13:22.332Z,17.52
2023-02-06T17:15:52.262Z,17.42
2023-02-06T17:18:20.938Z,20.55
2023-02-06T17:20:51.648Z,16.77
2023-02-06T17:23:19.415Z,17.10
2023-02-06T17:25:47.565Z,20.08
2023-02-06T17:28:16.806Z,16.48
2023-02-06T17:30:44.473Z,17.55
2023-02-06T17:33:12.092Z,18.20
2023-02-06T17:35:39.600Z,16.23
2023-02-06T17:38:07.915Z,19.10
2023-02-06T17:40:37.512Z,18.05
2023-02-06T17:43:05.803Z,16.98
2023-02-06T17:45:34.796Z,17.80
2023-02-06T17:48:02.515Z,18.77
2023-02-06T17:50:30.157Z,17.55
2023-02-06T17:52:59.025Z,19.67
2023-02-06T17:55:27.067Z,20.27
2023-02-06T17:57:54.921Z,20.55
2023-02-06T18:00:25.688Z,20.88
2023-02-06T18:02:54.886Z,19.67
2023-02-06T18:05:23.124Z,20.25
2023-02-06T18:07:51.811Z,18.33
2023-02-06T18:10:20.002Z,19.33
2023-02-06T18:12:47.678Z,18.27
2023-02-06T18:15:15.585Z,19.58
2023-02-06T18:17:43.149Z,18.58
2023-02-06T18:20:11.844Z,17.30
2023-02-06T18:22:42.270Z,19.83
2023-02-06T18:25:11.046Z,17.02
2023-02-06T18:27:39.440Z,16.70
2023-02-06T18:30:07.164Z,19.73
2023-02-06T18:32:34.743Z,18.75
2023-02-06T18:35:02.396Z,17.65
2023-02-06T18:37:29.854Z,19.92
2023-02-06T18:39:57.357Z,19.17
2023-02-06T18:42:43.607Z,20.33
2023-02-06T18:45:11.161Z,19.73
2023-02-06T18:47:40.064Z,19.25
2023-02-06T18:50:07.620Z,18.13
2023-02-06T18:52:35.066Z,19.55
2023-02-06T18:55:02.584Z,18.13
2023-02-06T18:57:30.002Z,17.13
2023-02-06T18:59:58.859Z,20.05
2023-02-06T19:02:27.187Z,20.15
2023-02-06T19:04:54.882Z,20.52
2023-02-06T19:07:22.394Z,19.73
2023-02-06T19:09:49.873Z,19.35
2023-02-06T19:12:17.380Z,22.58
2023-02-06T19:14:44.829Z,19.67
2023-02-06T19:17:12.354Z,17.92
2023-02-06T19:19:39.797Z,20.95
2023-02-06T19:22:07.191Z,20.70
2023-02-06T19:24:34.874Z,18.38
2023-02-06T19:27:02.343Z,23.17
2023-02-06T19:29:35.585Z,18.60
2023-02-06T19:32:05.191Z,17.95
2023-02-06T19:34:36.100Z,17.88
2023-02-06T19:37:07.263Z,21.13
2023-02-06T19:39:37.029Z,18.65
2023-02-06T19:42:06.750Z,17.23
2023-02-06T19:44:34.443Z,18.67
2023-02-06T19:47:01.906Z,20.27
2023-02-06T19:49:29.583Z,20.13
2023-02-06T19:51:57.066Z,17.70
2023-02-06T19:54:24.621Z,17.77
2023-02-06T19:56:52.158Z,18.65
2023-02-06T19:59:26.988Z,15.27
2023-02-06T20:01:59.109Z,19.02
2023-02-06T20:04:28.918Z,19.63
2023-02-06T20:06:57.274Z,20.80
2023-02-06T20:09:25.017Z,19.10
2023-02-06T20:11:52.478Z,18.38
2023-02-06T20:14:20.345Z,21.55
2023-02-06T20:16:49.105Z,18.45
2023-02-06T20:19:24.760Z,18.92
2023-02-06T20:21:54.057Z,17.77
2023-02-06T20:24:23.240Z,17.33
2023-02-06T20:26:54.045Z,18.17
2023-02-06T20:29:49.230Z,18.52
2023-02-06T20:32:19.436Z,17.02
2023-02-06T20:34:47.589Z,18.60
2023-02-06T20:37:19.558Z,19.15
2023-02-06T20:39:47.271Z,18.27
2023-02-06T20:42:15.465Z,17.65
2023-02-06T20:44:42.924Z,19.65
2023-02-06T20:47:10.347Z,17.58
2023-02-06T20:49:37.823Z,16.20
2023-02-06T20:52:06.392Z,20.35
2023-02-06T20:54:33.872Z,17.27
2023-02-06T20:57:01.357Z,16.65
2023-02-06T20:59:31.208Z,16.45
2023-02-06T21:01:58.611Z,17.83
2023-02-06T21:04:26.085Z,16.92
2023-02-06T21:06:53.516Z,18.65
2023-02-06T21:09:21.014Z,19.15
2023-02-06T21:11:50.063Z,18.33
2023-02-06T21:14:18.235Z,17.90
2023-02-06T21:16:45.853Z,19.70
2023-02-06T21:19:14.507Z,18.23
2023-02-06T21:21:44.246Z,17.77
2023-02-06T21:24:13.290Z,18.13
2023-02-06T21:26:40.717Z,18.35
2023-02-06T21:29:08.216Z,18.85
2023-02-06T21:31:38.378Z,18.27
2023-02-06T21:34:10.346Z,18.65
2023-02-06T21:36:38.329Z,14.95
2023-02-06T21:39:06.567Z,16.35
2023-02-06T21:41:34.398Z,17.02
2023-02-06T21:44:01.929Z,17.10
2023-02-06T21:46:32.253Z,16.45
2023-02-06T21:48:59.740Z,17.27
2023-02-06T21:51:27.177Z,19.08
2023-02-06T21:53:54.749Z,17.63
2023-02-06T21:56:23.118Z,16.20
2023-02-06T21:58:50.980Z,14.95
2023-02-06T22:01:20.387Z,17.33
2023-02-06T22:03:48.762Z,14.73
2023-02-06T22:06:16.674Z,17.10
2023-02-06T22:08:45.437Z,16.42
2023-02-06T22:11:12.856Z,16.35
2023-02-06T22:13:40.812Z,20.17
2023-02-06T22:16:08.803Z,18.63
2023-02-06T22:18:36.344Z,18.88
2023-02-06T22:21:08.223Z,21.73
2023-02-06T22:23:36.025Z,23.83
2023-02-06T22:26:04.078Z,23.83
2023-02-06T22:28:32.218Z,21.85
2023-02-06T22:31:29.085Z,18.73
2023-02-06T22:33:57.855Z,20.73
2023-02-06T22:36:26.433Z,19.00
2023-02-06T22:38:59.845Z,19.35
2023-02-06T22:41:27.826Z,19.48
2023-02-06T22:43:55.309Z,20.58
2023-02-06T22:46:30.077Z,21.15
2023-02-06T22:48:57.510Z,20.42
2023-02-06T22:51:25.066Z,19.70
2023-02-06T22:53:52.573Z,19.50
2023-02-06T22:56:36.159Z,18.05
2023-02-06T22:59:03.624Z,16.35
2023-02-06T23:01:38.284Z,17.15
2023-02-06T23:04:06.767Z,18.83
2023-02-06T23:06:34.911Z,16.35
2023-02-06T23:09:03.704Z,17.10
2023-02-06T23:11:31.948Z,16.08
2023-02-06T23:14:00.621Z,18.65
2023-02-06T23:16:28.766Z,17.08
2023-02-06T23:18:56.419Z,17.13
2023-02-06T23:21:24.891Z,18.17
2023-02-06T23:23:52.540Z,18.08
2023-02-06T23:26:20.368Z,18.48
2023-02-06T23:28:47.999Z,20.88
2023-02-06T23:31:15.618Z,19.17
2023-02-06T23:33:43.144Z,18.83
2023-02-06T23:36:12.289Z,18.67
2023-02-06T23:38:40.274Z,21.02
2023-02-06T23:41:15.174Z,18.95
2023-02-06T23:43:43.002Z,18.00
2023-02-06T23:46:12.376Z,20.77
2023-02-06T23:48:40.457Z,19.25
2023-02-06T23:51:08.264Z,20.83
2023-02-06T23:53:35.887Z,19.95
2023-02-06T23:56:03.914Z,18.55
2023-02-06T23:58:31.468Z,19.02
